KZR992 UACC-UAAA
Flight info
| Callsign | KZR992 |
|---|---|
| Flight time | N/A |
| Altitude | 37000 |
| Route | BANOS W333 ETEDA ETEDA1Z |
| Aircraft | A21N/M-SDE3FGHIRWY/LB1 |
Departure
| Time | 2026-05-04 17:37 |
|---|---|
| Airport | Nursultan Nazarbayev International Airport (UACC) |
Arrival
| Time | N/A |
|---|---|
| Airport | Almaty International Airport (UAAA) |
| Time | Latitude | Longitude | Altitude | Speed | Heading |
|---|---|---|---|---|---|
| 2026-05-04 17:36 | 50.94204 | 71.34438 | 4472 ft | 247 kts | 203° |
| 2026-05-04 17:37 | 50.92509 | 71.33913 | 4886 ft | 259 kts | 177° |
| 2026-05-04 17:37 | 50.90760 | 71.34712 | 5490 ft | 267 kts | 151° |
| 2026-05-04 17:37 | 50.89343 | 71.36617 | 6106 ft | 274 kts | 136° |
| 2026-05-04 17:37 | 50.88005 | 71.38818 | 6680 ft | 280 kts | 136° |
| 2026-05-04 17:38 | 50.86649 | 71.41040 | 7291 ft | 284 kts | 136° |
| 2026-05-04 17:38 | 50.85242 | 71.43197 | 7892 ft | 287 kts | 141° |
| 2026-05-04 17:38 | 50.83717 | 71.45270 | 8505 ft | 290 kts | 142° |
| 2026-05-04 17:38 | 50.82189 | 71.47315 | 9125 ft | 293 kts | 142° |
| 2026-05-04 17:39 | 50.79029 | 71.51528 | 10332 ft | 300 kts | 142° |
| 2026-05-04 17:39 | 50.77422 | 71.53670 | 10658 ft | 312 kts | 142° |
| 2026-05-04 17:39 | 50.75724 | 71.55930 | 10913 ft | 327 kts | 141° |
| 2026-05-04 17:40 | 50.73945 | 71.58297 | 11169 ft | 341 kts | 141° |
| 2026-05-04 17:40 | 50.72111 | 71.60737 | 11498 ft | 352 kts | 141° |
| 2026-05-04 17:40 | 50.70220 | 71.63253 | 12029 ft | 357 kts | 141° |
| 2026-05-04 17:40 | 50.68326 | 71.65769 | 12565 ft | 360 kts | 142° |
| 2026-05-04 17:41 | 50.66404 | 71.68319 | 13097 ft | 363 kts | 142° |
| 2026-05-04 17:41 | 50.64485 | 71.70861 | 13610 ft | 366 kts | 142° |
| 2026-05-04 17:41 | 50.62518 | 71.73464 | 14118 ft | 370 kts | 142° |
| 2026-05-04 17:41 | 50.60552 | 71.76066 | 14607 ft | 373 kts | 142° |
| 2026-05-04 17:42 | 50.58553 | 71.78706 | 15103 ft | 376 kts | 142° |
| 2026-05-04 17:42 | 50.56544 | 71.81358 | 15578 ft | 379 kts | 142° |
| 2026-05-04 17:42 | 50.54532 | 71.84008 | 16055 ft | 382 kts | 142° |
| 2026-05-04 17:42 | 50.52488 | 71.86700 | 16515 ft | 385 kts | 142° |
| 2026-05-04 17:43 | 50.50436 | 71.89397 | 16956 ft | 388 kts | 142° |
| 2026-05-04 17:43 | 50.48371 | 71.92110 | 17403 ft | 391 kts | 142° |
| 2026-05-04 17:43 | 50.46276 | 71.94859 | 17848 ft | 394 kts | 142° |
| 2026-05-04 17:43 | 50.44176 | 71.97611 | 18283 ft | 396 kts | 142° |
| 2026-05-04 17:44 | 50.42050 | 72.00392 | 18727 ft | 398 kts | 142° |
| 2026-05-04 17:44 | 50.39928 | 72.03165 | 19158 ft | 400 kts | 142° |
| 2026-05-04 17:44 | 50.37807 | 72.05934 | 19570 ft | 403 kts | 142° |
| 2026-05-04 17:44 | 50.35641 | 72.08760 | 19989 ft | 405 kts | 142° |
| 2026-05-04 17:45 | 50.33476 | 72.11581 | 20401 ft | 407 kts | 142° |
| 2026-05-04 17:45 | 50.31308 | 72.14401 | 20800 ft | 408 kts | 142° |
| 2026-05-04 17:45 | 50.29115 | 72.17249 | 21198 ft | 410 kts | 142° |
| 2026-05-04 17:45 | 50.26920 | 72.20097 | 21588 ft | 412 kts | 142° |
| 2026-05-04 17:46 | 50.24741 | 72.22931 | 21954 ft | 414 kts | 141° |
| 2026-05-04 17:46 | 50.22623 | 72.26016 | 22301 ft | 418 kts | 136° |
| 2026-05-04 17:46 | 50.20690 | 72.29382 | 22650 ft | 420 kts | 130° |
| 2026-05-04 17:46 | 50.18915 | 72.33006 | 22991 ft | 423 kts | 127° |
| 2026-05-04 17:47 | 50.17187 | 72.36679 | 23328 ft | 425 kts | 127° |
| 2026-05-04 17:47 | 50.15437 | 72.40419 | 23676 ft | 426 kts | 127° |
| 2026-05-04 17:47 | 50.13679 | 72.44157 | 24004 ft | 428 kts | 127° |
| 2026-05-04 17:47 | 50.11924 | 72.47876 | 24314 ft | 431 kts | 127° |
| 2026-05-04 17:48 | 50.10140 | 72.51643 | 24622 ft | 433 kts | 127° |
| 2026-05-04 17:48 | 50.08372 | 72.55363 | 24917 ft | 435 kts | 127° |
| 2026-05-04 17:48 | 50.06550 | 72.59189 | 25195 ft | 437 kts | 127° |
| 2026-05-04 17:48 | 50.04742 | 72.62979 | 25474 ft | 440 kts | 127° |
| 2026-05-04 17:49 | 50.02932 | 72.66769 | 25740 ft | 442 kts | 128° |
| 2026-05-04 17:49 | 50.01100 | 72.70595 | 25992 ft | 444 kts | 128° |
| 2026-05-04 17:49 | 49.99251 | 72.74451 | 26249 ft | 446 kts | 128° |
| 2026-05-04 17:49 | 49.97402 | 72.78305 | 26477 ft | 449 kts | 127° |
| 2026-05-04 17:50 | 49.95524 | 72.82212 | 26729 ft | 451 kts | 127° |
| 2026-05-04 17:50 | 49.93662 | 72.86082 | 26977 ft | 453 kts | 127° |
| 2026-05-04 17:50 | 49.91772 | 72.90002 | 27222 ft | 455 kts | 127° |
| 2026-05-04 17:50 | 49.89864 | 72.93954 | 27470 ft | 456 kts | 127° |
| 2026-05-04 17:51 | 49.87963 | 72.97890 | 27694 ft | 458 kts | 127° |
| 2026-05-04 17:51 | 49.86058 | 73.01826 | 27914 ft | 460 kts | 127° |
| 2026-05-04 17:51 | 49.84135 | 73.05791 | 28134 ft | 462 kts | 127° |
| 2026-05-04 17:51 | 49.82229 | 73.09718 | 28342 ft | 464 kts | 127° |
| 2026-05-04 17:52 | 49.80288 | 73.13708 | 28581 ft | 465 kts | 127° |
| 2026-05-04 17:52 | 49.78333 | 73.17725 | 28796 ft | 467 kts | 127° |
| 2026-05-04 17:52 | 49.76376 | 73.21737 | 28988 ft | 470 kts | 127° |
| 2026-05-04 17:52 | 49.74407 | 73.25768 | 29169 ft | 472 kts | 127° |
| 2026-05-04 17:53 | 49.72442 | 73.29784 | 29372 ft | 473 kts | 127° |
| 2026-05-04 17:53 | 49.70291 | 73.33627 | 29565 ft | 475 kts | 135° |
| 2026-05-04 17:53 | 49.67772 | 73.36948 | 29748 ft | 476 kts | 145° |
| 2026-05-04 17:53 | 49.64954 | 73.39632 | 29918 ft | 476 kts | 154° |
| 2026-05-04 17:54 | 49.61974 | 73.41647 | 30113 ft | 475 kts | 160° |
| 2026-05-04 17:54 | 49.58883 | 73.43486 | 30324 ft | 476 kts | 161° |
| 2026-05-04 17:54 | 49.55783 | 73.45292 | 30516 ft | 478 kts | 161° |
| 2026-05-04 17:54 | 49.52679 | 73.47110 | 30718 ft | 479 kts | 161° |
| 2026-05-04 17:55 | 49.49556 | 73.48957 | 30922 ft | 480 kts | 160° |
| 2026-05-04 17:55 | 49.46462 | 73.50797 | 31102 ft | 482 kts | 160° |
| 2026-05-04 17:55 | 49.43334 | 73.52666 | 31341 ft | 482 kts | 160° |
| 2026-05-04 17:55 | 49.40250 | 73.54512 | 31611 ft | 481 kts | 160° |
| 2026-05-04 17:56 | 49.37133 | 73.56377 | 31859 ft | 481 kts | 160° |
| 2026-05-04 17:56 | 49.34010 | 73.58245 | 32095 ft | 481 kts | 160° |
| 2026-05-04 17:56 | 49.30889 | 73.60107 | 32335 ft | 481 kts | 160° |
| 2026-05-04 17:56 | 49.27800 | 73.61948 | 32565 ft | 481 kts | 160° |
| 2026-05-04 17:57 | 49.24694 | 73.63799 | 32799 ft | 480 kts | 160° |
| 2026-05-04 17:57 | 49.21596 | 73.65640 | 33033 ft | 480 kts | 160° |
| 2026-05-04 17:57 | 49.18470 | 73.67497 | 33277 ft | 479 kts | 160° |
| 2026-05-04 17:57 | 49.15409 | 73.69314 | 33513 ft | 479 kts | 160° |
| 2026-05-04 17:58 | 49.12301 | 73.71155 | 33756 ft | 478 kts | 161° |
| 2026-05-04 17:58 | 49.09186 | 73.72998 | 33980 ft | 478 kts | 160° |
| 2026-05-04 17:58 | 49.06126 | 73.74805 | 34175 ft | 478 kts | 160° |
| 2026-05-04 17:58 | 49.03030 | 73.76631 | 34367 ft | 478 kts | 160° |
| 2026-05-04 17:59 | 48.99945 | 73.78449 | 34558 ft | 478 kts | 160° |
| 2026-05-04 17:59 | 48.96821 | 73.80283 | 34772 ft | 477 kts | 160° |
| 2026-05-04 17:59 | 48.90661 | 73.83878 | 35174 ft | 475 kts | 161° |
| 2026-05-04 18:00 | 48.87570 | 73.85680 | 35349 ft | 475 kts | 160° |
| 2026-05-04 18:00 | 48.84510 | 73.87459 | 35509 ft | 475 kts | 160° |
| 2026-05-04 18:00 | 48.81425 | 73.89253 | 35648 ft | 475 kts | 160° |
| 2026-05-04 18:00 | 48.78346 | 73.91041 | 35796 ft | 475 kts | 160° |
| 2026-05-04 18:01 | 48.75283 | 73.92818 | 35939 ft | 474 kts | 160° |
| 2026-05-04 18:01 | 48.72212 | 73.94595 | 36082 ft | 474 kts | 160° |
| 2026-05-04 18:01 | 48.69143 | 73.96372 | 36221 ft | 474 kts | 160° |
| 2026-05-04 18:02 | 48.62970 | 73.99934 | 36502 ft | 473 kts | 160° |
| 2026-05-04 18:02 | 48.59918 | 74.01694 | 36637 ft | 473 kts | 161° |
| 2026-05-04 18:02 | 48.56873 | 74.03446 | 36753 ft | 473 kts | 160° |
| 2026-05-04 18:02 | 48.53769 | 74.05231 | 36851 ft | 474 kts | 161° |
| 2026-05-04 18:03 | 48.50703 | 74.06992 | 36958 ft | 475 kts | 161° |
| 2026-05-04 18:03 | 48.47633 | 74.08751 | 37093 ft | 474 kts | 161° |
| 2026-05-04 18:03 | 48.44558 | 74.10513 | 37215 ft | 475 kts | 161° |
| 2026-05-04 18:03 | 48.41457 | 74.12285 | 37214 ft | 476 kts | 161° |
| 2026-05-04 18:04 | 48.35287 | 74.15806 | 37222 ft | 476 kts | 161° |
| 2026-05-04 18:05 | 48.26043 | 74.21064 | 37220 ft | 475 kts | 161° |
| 2026-05-04 18:05 | 48.19884 | 74.24558 | 37225 ft | 475 kts | 160° |
| 2026-05-04 18:06 | 48.10629 | 74.29799 | 37216 ft | 475 kts | 160° |
| 2026-05-04 18:06 | 48.04470 | 74.33318 | 37217 ft | 475 kts | 160° |
| 2026-05-04 18:07 | 47.98300 | 74.36840 | 37218 ft | 475 kts | 160° |
| 2026-05-04 18:07 | 47.92176 | 74.40325 | 37206 ft | 474 kts | 160° |
| 2026-05-04 18:08 | 47.86025 | 74.43815 | 37197 ft | 473 kts | 160° |
| 2026-05-04 18:08 | 47.79868 | 74.47298 | 37196 ft | 474 kts | 160° |
| 2026-05-04 18:09 | 47.67579 | 74.54227 | 37189 ft | 472 kts | 160° |
| 2026-05-04 18:10 | 47.61493 | 74.57646 | 37188 ft | 471 kts | 160° |
| 2026-05-04 18:10 | 47.55372 | 74.61074 | 37193 ft | 469 kts | 160° |
| 2026-05-04 18:11 | 47.49266 | 74.64499 | 37186 ft | 469 kts | 160° |
| 2026-05-04 18:11 | 47.43209 | 74.67903 | 37190 ft | 469 kts | 160° |
| 2026-05-04 18:12 | 47.37092 | 74.71336 | 37186 ft | 468 kts | 161° |
| 2026-05-04 18:12 | 47.31012 | 74.74735 | 37184 ft | 467 kts | 161° |
| 2026-05-04 18:13 | 47.24942 | 74.78121 | 37183 ft | 467 kts | 161° |
| 2026-05-04 18:14 | 47.15887 | 74.83155 | 37173 ft | 465 kts | 161° |
| 2026-05-04 18:14 | 47.09820 | 74.86517 | 37179 ft | 465 kts | 161° |
| 2026-05-04 18:15 | 46.97779 | 74.93169 | 37187 ft | 464 kts | 161° |
| 2026-05-04 18:16 | 46.91732 | 74.96497 | 37183 ft | 464 kts | 161° |
| 2026-05-04 18:16 | 46.85767 | 74.99988 | 37186 ft | 464 kts | 158° |
| 2026-05-04 18:17 | 46.76876 | 75.05636 | 37186 ft | 464 kts | 158° |
| 2026-05-04 18:18 | 46.68030 | 75.11233 | 37176 ft | 464 kts | 158° |
| 2026-05-04 18:18 | 46.62128 | 75.14957 | 37173 ft | 464 kts | 158° |
| 2026-05-04 18:19 | 46.53277 | 75.20525 | 37174 ft | 463 kts | 157° |
| 2026-05-04 18:19 | 46.47402 | 75.24210 | 37168 ft | 462 kts | 158° |
| 2026-05-04 18:20 | 46.41492 | 75.27908 | 37164 ft | 463 kts | 158° |
| 2026-05-04 18:20 | 46.35569 | 75.31606 | 37162 ft | 462 kts | 157° |
| 2026-05-04 18:21 | 46.29674 | 75.35279 | 37160 ft | 462 kts | 158° |
| 2026-05-04 18:21 | 46.23787 | 75.38935 | 37153 ft | 461 kts | 157° |
| 2026-05-04 18:22 | 46.17902 | 75.42598 | 37159 ft | 461 kts | 157° |
| 2026-05-04 18:22 | 46.12002 | 75.46281 | 37158 ft | 461 kts | 157° |
| 2026-05-04 18:23 | 46.06146 | 75.49926 | 37150 ft | 461 kts | 157° |
| 2026-05-04 18:23 | 46.00248 | 75.53587 | 37148 ft | 461 kts | 157° |
| 2026-05-04 18:24 | 45.94378 | 75.57224 | 37152 ft | 461 kts | 157° |
| 2026-05-04 18:24 | 45.88505 | 75.60854 | 37156 ft | 460 kts | 157° |
| 2026-05-04 18:25 | 45.82665 | 75.64459 | 37153 ft | 459 kts | 157° |
| 2026-05-04 18:25 | 45.76780 | 75.68078 | 37150 ft | 459 kts | 158° |
| 2026-05-04 18:26 | 45.70927 | 75.71671 | 37148 ft | 460 kts | 158° |
| 2026-05-04 18:26 | 45.65070 | 75.75256 | 37151 ft | 460 kts | 158° |
| 2026-05-04 18:27 | 45.59221 | 75.78830 | 37150 ft | 460 kts | 158° |
| 2026-05-04 18:27 | 45.53322 | 75.82428 | 37148 ft | 459 kts | 158° |
| 2026-05-04 18:28 | 45.47501 | 75.85972 | 37136 ft | 458 kts | 159° |
| 2026-05-04 18:28 | 45.41613 | 75.89545 | 37141 ft | 459 kts | 159° |
| 2026-05-04 18:29 | 45.35751 | 75.93096 | 37136 ft | 458 kts | 159° |
| 2026-05-04 18:29 | 45.29913 | 75.96627 | 37133 ft | 458 kts | 159° |
| 2026-05-04 18:30 | 45.21130 | 76.01920 | 37131 ft | 457 kts | 159° |
| 2026-05-04 18:31 | 45.15284 | 76.05434 | 37129 ft | 457 kts | 159° |
| 2026-05-04 18:31 | 45.12362 | 76.07187 | 36997 ft | 458 kts | 159° |
| 2026-05-04 18:31 | 45.09454 | 76.08930 | 36698 ft | 455 kts | 159° |
| 2026-05-04 18:31 | 45.06538 | 76.10677 | 36423 ft | 453 kts | 159° |
| 2026-05-04 18:32 | 45.03647 | 76.12407 | 36134 ft | 450 kts | 159° |
| 2026-05-04 18:32 | 45.00789 | 76.14117 | 35737 ft | 449 kts | 159° |
| 2026-05-04 18:32 | 44.97928 | 76.15823 | 35205 ft | 450 kts | 159° |
| 2026-05-04 18:32 | 44.95031 | 76.17549 | 34552 ft | 454 kts | 159° |
| 2026-05-04 18:33 | 44.92113 | 76.19286 | 33668 ft | 459 kts | 159° |
| 2026-05-04 18:33 | 44.89204 | 76.21016 | 32907 ft | 460 kts | 159° |
| 2026-05-04 18:33 | 44.86244 | 76.22775 | 32186 ft | 460 kts | 160° |
| 2026-05-04 18:33 | 44.83282 | 76.24532 | 31473 ft | 460 kts | 160° |
| 2026-05-04 18:34 | 44.80362 | 76.26265 | 30765 ft | 460 kts | 160° |
| 2026-05-04 18:34 | 44.77420 | 76.28007 | 30043 ft | 460 kts | 160° |
| 2026-05-04 18:34 | 44.74466 | 76.29753 | 29450 ft | 456 kts | 160° |
| 2026-05-04 18:34 | 44.71589 | 76.31451 | 29017 ft | 450 kts | 159° |
| 2026-05-04 18:35 | 44.68719 | 76.33144 | 28556 ft | 446 kts | 159° |
| 2026-05-04 18:35 | 44.65864 | 76.34827 | 28081 ft | 441 kts | 159° |
| 2026-05-04 18:35 | 44.63029 | 76.36497 | 27602 ft | 437 kts | 159° |
| 2026-05-04 18:35 | 44.60273 | 76.38118 | 27134 ft | 434 kts | 159° |
| 2026-05-04 18:36 | 44.57508 | 76.39743 | 26662 ft | 430 kts | 159° |
| 2026-05-04 18:36 | 44.54733 | 76.41373 | 26185 ft | 427 kts | 159° |
| 2026-05-04 18:36 | 44.52019 | 76.42965 | 25712 ft | 424 kts | 159° |
| 2026-05-04 18:36 | 44.49316 | 76.44550 | 25244 ft | 421 kts | 158° |
| 2026-05-04 18:37 | 44.46629 | 76.46123 | 24774 ft | 418 kts | 158° |
| 2026-05-04 18:37 | 44.43946 | 76.47693 | 24303 ft | 415 kts | 158° |
| 2026-05-04 18:37 | 44.41308 | 76.49233 | 23838 ft | 412 kts | 158° |
| 2026-05-04 18:37 | 44.38679 | 76.50768 | 23373 ft | 409 kts | 158° |
| 2026-05-04 18:38 | 44.36091 | 76.52322 | 23105 ft | 403 kts | 155° |
| 2026-05-04 18:38 | 44.33629 | 76.54139 | 23103 ft | 400 kts | 149° |
| 2026-05-04 18:38 | 44.31286 | 76.56281 | 22623 ft | 404 kts | 144° |
| 2026-05-04 18:38 | 44.29021 | 76.58635 | 21968 ft | 407 kts | 142° |
| 2026-05-04 18:39 | 44.26770 | 76.61030 | 21414 ft | 407 kts | 142° |
| 2026-05-04 18:39 | 44.24532 | 76.63409 | 20885 ft | 406 kts | 142° |
| 2026-05-04 18:39 | 44.22306 | 76.65765 | 20378 ft | 404 kts | 142° |
| 2026-05-04 18:39 | 44.20067 | 76.68118 | 19885 ft | 402 kts | 142° |
| 2026-05-04 18:40 | 44.17850 | 76.70440 | 19385 ft | 400 kts | 142° |
| 2026-05-04 18:40 | 44.15644 | 76.72748 | 19025 ft | 393 kts | 142° |
| 2026-05-04 18:40 | 44.13485 | 76.75003 | 18647 ft | 387 kts | 142° |
| 2026-05-04 18:40 | 44.11359 | 76.77220 | 18263 ft | 382 kts | 142° |
| 2026-05-04 18:41 | 44.09249 | 76.79417 | 17880 ft | 377 kts | 142° |
| 2026-05-04 18:41 | 44.07164 | 76.81589 | 17520 ft | 371 kts | 142° |
| 2026-05-04 18:41 | 44.05125 | 76.83712 | 17138 ft | 367 kts | 142° |
| 2026-05-04 18:41 | 44.03079 | 76.85844 | 16715 ft | 363 kts | 142° |
| 2026-05-04 18:42 | 44.01088 | 76.87914 | 16291 ft | 360 kts | 142° |
| 2026-05-04 18:42 | 43.99072 | 76.90005 | 15843 ft | 358 kts | 142° |
| 2026-05-04 18:42 | 43.97091 | 76.92061 | 15389 ft | 355 kts | 142° |
| 2026-05-04 18:42 | 43.95136 | 76.94086 | 14983 ft | 353 kts | 142° |
| 2026-05-04 18:43 | 43.93163 | 76.96127 | 14522 ft | 350 kts | 142° |
| 2026-05-04 18:43 | 43.91236 | 76.98120 | 14091 ft | 348 kts | 142° |
| 2026-05-04 18:43 | 43.89325 | 77.00094 | 13517 ft | 342 kts | 142° |
| 2026-05-04 18:43 | 43.87427 | 77.02054 | 13028 ft | 341 kts | 142° |
| 2026-05-04 18:44 | 43.85513 | 77.04029 | 12553 ft | 340 kts | 142° |
| 2026-05-04 18:44 | 43.84899 | 77.04663 | 12416 ft | 339 kts | 142° |
| 2026-05-04 18:44 | 43.81757 | 77.07902 | 11737 ft | 336 kts | 142° |
| 2026-05-04 18:44 | 43.79909 | 77.09805 | 11304 ft | 334 kts | 142° |
| 2026-05-04 18:45 | 43.78032 | 77.11735 | 10884 ft | 331 kts | 142° |
| 2026-05-04 18:45 | 43.76199 | 77.13618 | 10499 ft | 329 kts | 142° |
| 2026-05-04 18:45 | 43.74391 | 77.15474 | 10104 ft | 326 kts | 142° |
| 2026-05-04 18:45 | 43.72566 | 77.17345 | 9945 ft | 316 kts | 142° |
| 2026-05-04 18:46 | 43.70857 | 77.19094 | 9938 ft | 300 kts | 141° |
| 2026-05-04 18:46 | 43.69197 | 77.20795 | 9745 ft | 294 kts | 141° |
| 2026-05-04 18:46 | 43.67563 | 77.22469 | 9404 ft | 293 kts | 141° |
| 2026-05-04 18:46 | 43.65937 | 77.24133 | 9049 ft | 291 kts | 141° |
| 2026-05-04 18:47 | 43.64307 | 77.25803 | 8703 ft | 290 kts | 141° |
| 2026-05-04 18:47 | 43.62693 | 77.27452 | 8343 ft | 289 kts | 141° |
| 2026-05-04 18:47 | 43.61090 | 77.29089 | 7999 ft | 287 kts | 141° |
| 2026-05-04 18:47 | 43.59504 | 77.30699 | 7872 ft | 277 kts | 143° |